Hartland Corners, Vermont
Current Conditions -  °F | °C
As of 6:53 PM on Saturday 20 Dec 2014 (Local Time) from KLEB Reporting Station
Clear Clear  
Wind Chill: 17°   Ceiling: Unl
Heat Index: 17°   Visibility: 10mi
Dew Point: 13°   Wind: 0mph
Humidity: 84%   Direction: NA
Pressure: 30.28"   Gusts: NA
Location:  43.5466°N, 72.4252°W
Report Text: KLEB 202353Z 00000KT 10SM CLR M08/M11 A3028 RMK AO2 SLP273 T10831106 10000 21089 53008
Loading
Personal Weather Stations






























Interactive Weather Map New forecast layout! Learn more

10-Day Weather Forecast

Advertisements
Track Severe Weather on mobile